ENHD/HAU METAR and TAF weather

Enter ICAO airport designator
Station Type Date Time Source
ENHD METAR 2019/06/24 23:20 UTC NOAA

ENHD 242320Z AUTO 10017KT 9999 -RA FEW009/// SCT057/// 13/11 Q1023


Station Type Date Time Source
ENHD Decoded METAR 2019/06/24 23:20 UTC NOAA

Haugesund / Karmoy, Norway (ENHD) 59-21N 005-13E 24M
Jun 24, 2019 - 07:20 PM EDT / 2019.06.24 2320 UTC
Wind: from the E (100 degrees) at 20 MPH (17 KT):0
Visibility: greater than 7 mile(s):0
Sky conditions: partly cloudy
Weather: light rain
Temperature: 55 F (13 C)
Dew Point: 51 F (11 C)
Relative Humidity: 87%
Pressure (altimeter): 30.21 in. Hg (1023 hPa)
ob: ENHD 242320Z AUTO 10017KT 9999 -RA FEW009/// SCT057/// 13/11 Q1023
cycle: 23

Station Type Date Time Source
ENHD TAF UTC NOAA

Error!

Example: see airport list